Time;durP1;ratioP1;P1;durP2;ratioP2;P2;SDS_P1;SDS_P2;PMS_P1;PMS_P2;Temp;Humidity;BMP_temperature;BMP_pressure;BME280_temperature;BME280_humidity;BME280_pressure;Samples;Min_cycle;Max_cycle;Signal;HPM_P1;HPM_P2
2022/06/15 00:02:25;;;;;;;;;;;24.80;44.70;;;;;;5075291;28;19908;-60
2022/06/15 00:04:50;;;;;;;;;;;24.80;44.60;;;;;;5075155;28;20364;-61
2022/06/15 00:07:16;;;;;;;;;;;24.70;44.50;;;;;;5090767;28;20383;-61
2022/06/15 00:09:41;;;;;;;;;;;24.70;44.60;;;;;;5075020;28;20326;-61
2022/06/15 00:12:08;;;;;;;;;;;24.70;44.60;;;;;;5090685;28;19915;-61
2022/06/15 00:14:34;;;;;;;;;;;24.70;44.70;;;;;;5057316;28;20372;-61
2022/06/15 00:16:59;;;;;;;;;;;24.70;44.60;;;;;;5057011;28;19919;-60
2022/06/15 00:19:25;;;;;;;;;;;24.70;44.60;;;;;;5057000;28;20361;-61
2022/06/15 00:21:50;;;;;;;;;;;24.70;44.60;;;;;;5074919;28;20338;-61
2022/06/15 00:24:16;;;;;;;;;;;24.70;44.70;;;;;;5075041;28;19934;-60
2022/06/15 00:26:41;;;;;;;;;;;24.70;44.70;;;;;;5075088;28;19909;-61
2022/06/15 00:29:07;;;;;;;;;;;24.70;44.70;;;;;;5057215;28;20387;-60
2022/06/15 00:31:33;;;;;;;;;;;24.70;44.70;;;;;;5090563;28;19909;-60
2022/06/15 00:33:58;;;;;;;;;;;24.70;44.70;;;;;;5090193;28;19908;-61
2022/06/15 00:36:24;;;;;;;;;;;24.70;44.80;;;;;;5074636;28;19954;-61
2022/06/15 00:38:50;;;;;;;;;;;24.70;44.80;;;;;;5074415;28;20457;-61
2022/06/15 00:41:26;;;;;;;;;;;24.70;44.80;;;;;;5056726;28;19909;-60
2022/06/15 00:43:56;;;;;;;;;;;24.70;44.80;;;;;;5074499;28;20364;-60
2022/06/15 00:46:37;;;;;;;;;;;24.70;44.80;;;;;;5056444;28;19912;-60
2022/06/15 00:49:08;;;;;;;;;;;24.70;44.80;;;;;;5056180;28;19921;-60
2022/06/15 00:51:34;;;;;;;;;;;24.60;44.70;;;;;;5074222;28;19908;-60
2022/06/15 00:53:59;;;;;;;;;;;24.60;44.70;;;;;;5074350;28;19920;-61
2022/06/15 00:56:25;;;;;;;;;;;24.60;44.80;;;;;;5056338;28;19966;-60
2022/06/15 00:58:51;;;;;;;;;;;24.60;44.80;;;;;;5056249;28;19995;-60
2022/06/15 01:01:17;;;;;;;;;;;24.60;44.80;;;;;;5074133;28;20007;-61
2022/06/15 01:03:42;;;;;;;;;;;24.60;44.80;;;;;;5073943;28;20394;-61
2022/06/15 01:06:22;;;;;;;;;;;24.60;44.70;;;;;;5074008;28;20405;-61
2022/06/15 01:09:06;;;;;;;;;;;24.60;44.70;;;;;;5073847;28;19975;-61
2022/06/15 01:11:50;;;;;;;;;;;24.60;44.80;;;;;;5055953;28;19908;-60
2022/06/15 01:14:34;;;;;;;;;;;24.60;44.80;;;;;;5055918;28;19915;-60
2022/06/15 01:17:03;;;;;;;;;;;24.60;44.90;;;;;;5074025;28;19912;-61
2022/06/15 01:19:43;;;;;;;;;;;24.50;44.80;;;;;;5073798;28;19974;-60
2022/06/15 01:22:24;;;;;;;;;;;24.50;44.90;;;;;;5055814;28;20356;-61
2022/06/15 01:25:08;;;;;;;;;;;24.50;44.90;;;;;;5055869;28;19916;-61
2022/06/15 01:27:51;;;;;;;;;;;24.50;44.90;;;;;;5055688;28;19908;-61
2022/06/15 01:30:25;;;;;;;;;;;24.50;44.90;;;;;;5055685;28;20391;-61
2022/06/15 01:32:58;;;;;;;;;;;24.50;44.90;;;;;;5073675;28;19923;-61
2022/06/15 01:35:25;;;;;;;;;;;24.50;44.90;;;;;;5038914;28;19912;-60
2022/06/15 01:37:59;;;;;;;;;;;24.50;44.90;;;;;;5055510;28;19913;-60
2022/06/15 01:40:31;;;;;;;;;;;24.50;44.90;;;;;;5073420;28;20280;-60
2022/06/15 01:43:01;;;;;;;;;;;24.50;45.00;;;;;;5089012;28;20395;-60
2022/06/15 01:45:27;;;;;;;;;;;24.50;44.90;;;;;;5073283;28;19913;-60
2022/06/15 01:47:53;;;;;;;;;;;24.50;45.00;;;;;;5051918;28;19970;-60
2022/06/15 01:50:18;;;;;;;;;;;24.50;45.00;;;;;;5052171;28;19908;-61
2022/06/15 01:52:47;;;;;;;;;;;24.50;45.00;;;;;;5053210;28;19909;-61
2022/06/15 01:55:14;;;;;;;;;;;24.50;45.10;;;;;;5052080;28;19997;-60
2022/06/15 01:57:40;;;;;;;;;;;24.50;45.00;;;;;;5052224;28;19912;-61
2022/06/15 02:00:07;;;;;;;;;;;24.50;45.00;;;;;;5051236;28;20329;-61
2022/06/15 02:02:52;;;;;;;;;;;24.50;45.00;;;;;;5051836;28;20368;-60
2022/06/15 02:05:19;;;;;;;;;;;24.50;45.00;;;;;;5051999;28;19909;-60
2022/06/15 02:07:53;;;;;;;;;;;24.50;45.10;;;;;;5053271;28;19909;-61
2022/06/15 02:10:20;;;;;;;;;;;24.50;45.00;;;;;;5051764;28;19909;-60
2022/06/15 02:12:48;;;;;;;;;;;24.50;45.00;;;;;;5051622;28;19909;-61
2022/06/15 02:15:14;;;;;;;;;;;24.50;45.00;;;;;;5052900;28;20325;-60
2022/06/15 02:17:41;;;;;;;;;;;24.40;45.00;;;;;;5052950;28;19916;-60
2022/06/15 02:20:08;;;;;;;;;;;24.40;44.90;;;;;;5051683;28;19908;-60
2022/06/15 02:22:34;;;;;;;;;;;24.40;45.00;;;;;;5051531;28;19913;-60
2022/06/15 02:25:00;;;;;;;;;;;24.40;45.00;;;;;;5052839;28;19912;-60
2022/06/15 02:27:26;;;;;;;;;;;24.40;45.10;;;;;;5051753;28;20422;-60
2022/06/15 02:29:56;;;;;;;;;;;24.40;45.10;;;;;;5051658;28;19912;-61
2022/06/15 02:32:21;;;;;;;;;;;24.40;45.10;;;;;;5051804;28;20377;-60
2022/06/15 02:34:47;;;;;;;;;;;24.40;45.10;;;;;;5051489;28;19913;-61
2022/06/15 02:37:12;;;;;;;;;;;24.40;45.10;;;;;;5052854;28;20406;-60
2022/06/15 02:39:38;;;;;;;;;;;24.40;45.00;;;;;;5052738;28;19971;-60
2022/06/15 02:42:20;;;;;;;;;;;24.40;45.10;;;;;;5052750;28;19948;-60
2022/06/15 02:44:46;;;;;;;;;;;24.40;45.10;;;;;;5052711;28;19948;-61
2022/06/15 02:47:11;;;;;;;;;;;24.40;45.10;;;;;;5051474;28;19913;-60
2022/06/15 02:49:37;;;;;;;;;;;24.40;45.10;;;;;;5052662;28;19916;-60
2022/06/15 02:52:03;;;;;;;;;;;24.40;45.10;;;;;;5052652;28;19916;-61
2022/06/15 02:54:31;;;;;;;;;;;24.30;45.10;;;;;;5051386;28;20375;-60
2022/06/15 02:56:56;;;;;;;;;;;24.40;45.10;;;;;;5051405;28;19909;-60
2022/06/15 02:59:22;;;;;;;;;;;24.30;45.10;;;;;;5051450;28;19974;-60
2022/06/15 03:01:47;;;;;;;;;;;24.30;45.10;;;;;;5052785;28;19923;-60
2022/06/15 03:04:13;;;;;;;;;;;24.30;45.10;;;;;;5052465;28;19909;-61
2022/06/15 03:06:38;;;;;;;;;;;24.30;45.10;;;;;;5052471;28;19966;-61
2022/06/15 03:09:04;;;;;;;;;;;24.30;45.20;;;;;;5052398;28;19958;-61
2022/06/15 03:11:29;;;;;;;;;;;24.30;45.10;;;;;;5053387;28;19913;-60
2022/06/15 03:13:55;;;;;;;;;;;24.30;45.10;;;;;;5054759;28;20391;-61
2022/06/15 03:16:20;;;;;;;;;;;24.30;45.10;;;;;;5054830;28;19913;-60
2022/06/15 03:18:46;;;;;;;;;;;24.30;45.20;;;;;;5038127;28;19915;-61
2022/06/15 03:21:11;;;;;;;;;;;24.30;45.20;;;;;;5054664;28;19915;-60
2022/06/15 03:23:37;;;;;;;;;;;24.30;45.20;;;;;;5055965;28;19967;-61
2022/06/15 03:26:03;;;;;;;;;;;24.30;45.20;;;;;;5056079;28;20349;-61
2022/06/15 03:28:28;;;;;;;;;;;24.30;45.20;;;;;;5054723;28;19909;-61
2022/06/15 03:30:54;;;;;;;;;;;24.30;45.20;;;;;;5054595;28;20387;-60
2022/06/15 03:33:19;;;;;;;;;;;24.30;45.20;;;;;;5055667;28;19913;-60
2022/06/15 03:35:45;;;;;;;;;;;24.30;45.20;;;;;;5055487;28;19967;-61
2022/06/15 03:38:11;;;;;;;;;;;24.30;45.20;;;;;;5054395;28;19909;-60
2022/06/15 03:40:37;;;;;;;;;;;24.30;45.30;;;;;;5055571;28;19959;-61
2022/06/15 03:43:02;;;;;;;;;;;24.30;45.30;;;;;;5055283;28;19912;-60
2022/06/15 03:45:28;;;;;;;;;;;24.30;45.30;;;;;;5055340;28;19931;-61
2022/06/15 03:47:55;;;;;;;;;;;24.30;45.30;;;;;;5064754;28;20284;-60
2022/06/15 03:50:24;;;;;;;;;;;24.30;45.30;;;;;;5075321;28;19912;-60
2022/06/15 03:52:50;;;;;;;;;;;24.20;45.20;;;;;;5075320;28;20000;-60
2022/06/15 03:55:16;;;;;;;;;;;24.30;45.30;;;;;;5073890;28;20425;-60
2022/06/15 03:57:41;;;;;;;;;;;24.30;45.30;;;;;;5057444;28;20368;-60
2022/06/15 04:00:07;;;;;;;;;;;24.30;45.30;;;;;;5075184;28;19944;-61
2022/06/15 04:02:32;;;;;;;;;;;24.30;45.30;;;;;;5074945;28;19913;-60
2022/06/15 04:04:58;;;;;;;;;;;24.30;45.40;;;;;;5075009;28;20313;-61
2022/06/15 04:10:09;;;;;;;;;;;24.20;45.30;;;;;;5060185;28;20332;-60
2022/06/15 04:12:35;;;;;;;;;;;24.20;45.30;;;;;;5075003;28;19908;-60
2022/06/15 04:15:00;;;;;;;;;;;24.20;45.30;;;;;;5074705;28;20434;-60
2022/06/15 04:17:26;;;;;;;;;;;24.20;45.30;;;;;;5074958;28;19935;-60
2022/06/15 04:22:35;;;;;;;;;;;24.20;45.30;;;;;;5074092;28;19915;-60
2022/06/15 04:25:01;;;;;;;;;;;24.20;46.00;;;;;;5074535;28;19957;-60
2022/06/15 04:27:27;;;;;;;;;;;24.20;46.00;;;;;;5074658;28;20002;-60
2022/06/15 04:29:52;;;;;;;;;;;24.20;45.30;;;;;;5074584;28;19950;-60
2022/06/15 04:32:18;;;;;;;;;;;24.20;45.30;;;;;;5074530;28;19935;-60
2022/06/15 04:34:43;;;;;;;;;;;24.20;45.40;;;;;;5056581;28;19961;-61
2022/06/15 04:37:08;;;;;;;;;;;24.20;45.40;;;;;;5074443;28;19995;-61
2022/06/15 04:39:34;;;;;;;;;;;24.20;45.30;;;;;;5074397;28;19916;-60
2022/06/15 04:41:59;;;;;;;;;;;24.20;45.40;;;;;;5056481;28;19909;-61
2022/06/15 04:44:25;;;;;;;;;;;24.20;45.30;;;;;;5056487;28;19967;-60
2022/06/15 04:46:50;;;;;;;;;;;24.20;45.30;;;;;;5074126;28;19919;-60
2022/06/15 04:49:16;;;;;;;;;;;24.20;45.30;;;;;;5074269;28;19915;-60
2022/06/15 04:51:42;;;;;;;;;;;24.20;45.30;;;;;;5074144;28;19914;-60
2022/06/15 04:54:09;;;;;;;;;;;24.20;45.30;;;;;;5056270;28;19908;-61
2022/06/15 04:56:36;;;;;;;;;;;24.20;45.30;;;;;;5074148;28;19916;-60
2022/06/15 04:59:02;;;;;;;;;;;24.20;45.30;;;;;;5074076;28;19916;-60
2022/06/15 05:01:27;;;;;;;;;;;24.20;45.30;;;;;;5089482;28;19995;-60
2022/06/15 05:03:53;;;;;;;;;;;24.20;45.30;;;;;;5073791;28;19971;-61
2022/06/15 05:06:21;;;;;;;;;;;24.20;45.30;;;;;;5089552;28;19909;-60
2022/06/15 05:08:47;;;;;;;;;;;24.20;45.30;;;;;;5073720;28;19915;-61
2022/06/15 05:11:12;;;;;;;;;;;24.20;45.30;;;;;;5055958;28;20272;-60
2022/06/15 05:13:38;;;;;;;;;;;24.20;45.30;;;;;;5073662;28;19908;-60
2022/06/15 05:16:03;;;;;;;;;;;24.20;45.40;;;;;;5073612;28;20394;-60
2022/06/15 05:18:29;;;;;;;;;;;24.20;45.30;;;;;;5073678;28;20423;-61
2022/06/15 05:20:54;;;;;;;;;;;24.20;45.30;;;;;;5089400;28;19973;-61
2022/06/15 05:23:20;;;;;;;;;;;24.20;45.40;;;;;;5074128;28;20031;-61
2022/06/15 05:25:45;;;;;;;;;;;24.20;45.40;;;;;;5073517;28;19908;-61
2022/06/15 05:28:12;;;;;;;;;;;24.20;45.40;;;;;;5055514;28;20356;-60
2022/06/15 05:30:37;;;;;;;;;;;24.10;45.30;;;;;;5055858;28;20265;-60
2022/06/15 05:33:03;;;;;;;;;;;24.10;45.90;;;;;;5073561;28;19979;-61
2022/06/15 05:35:28;;;;;;;;;;;24.10;45.30;;;;;;5073338;28;20278;-61
2022/06/15 05:37:54;;;;;;;;;;;24.10;45.30;;;;;;5055402;28;20014;-61
2022/06/15 05:40:19;;;;;;;;;;;24.10;46.00;;;;;;5073304;28;19908;-61
2022/06/15 05:42:45;;;;;;;;;;;24.10;45.30;;;;;;5073293;28;19908;-60
2022/06/15 05:45:10;;;;;;;;;;;24.20;45.40;;;;;;5073454;28;19918;-60
2022/06/15 05:47:36;;;;;;;;;;;24.10;45.40;;;;;;5072788;28;19955;-61
2022/06/15 05:50:01;;;;;;;;;;;24.10;45.40;;;;;;5073243;28;20330;-60
2022/06/15 05:52:27;;;;;;;;;;;24.10;45.40;;;;;;5088678;28;19913;-60
2022/06/15 05:54:52;;;;;;;;;;;24.10;45.40;;;;;;5073150;28;20372;-60
2022/06/15 05:57:21;;;;;;;;;;;24.10;45.40;;;;;;5073255;28;19912;-61
2022/06/15 05:59:47;;;;;;;;;;;24.20;45.40;;;;;;5055355;28;20415;-60
2022/06/15 06:02:12;;;;;;;;;;;24.20;45.30;;;;;;5055274;28;19946;-60
2022/06/15 06:04:38;;;;;;;;;;;24.20;45.40;;;;;;5055217;28;19908;-61
2022/06/15 06:07:03;;;;;;;;;;;24.20;45.30;;;;;;5072895;28;20005;-61
2022/06/15 06:09:29;;;;;;;;;;;24.20;45.30;;;;;;5072956;28;19916;-60
2022/06/15 06:11:54;;;;;;;;;;;24.20;45.30;;;;;;5072810;28;20323;-61
2022/06/15 06:14:20;;;;;;;;;;;24.20;45.30;;;;;;5054928;28;19912;-61
2022/06/15 06:16:46;;;;;;;;;;;24.20;45.30;;;;;;5072851;28;20004;-61
2022/06/15 06:19:11;;;;;;;;;;;24.20;45.30;;;;;;5088512;28;19912;-61
2022/06/15 06:21:37;;;;;;;;;;;24.20;45.30;;;;;;5073198;28;19908;-61
2022/06/15 06:24:02;;;;;;;;;;;24.20;45.40;;;;;;5072750;28;19958;-61
2022/06/15 06:26:29;;;;;;;;;;;24.20;45.30;;;;;;5054958;28;20299;-60
2022/06/15 06:28:56;;;;;;;;;;;24.20;45.40;;;;;;5055038;28;19912;-60
2022/06/15 06:31:21;;;;;;;;;;;24.20;45.40;;;;;;5072881;28;20324;-61
2022/06/15 06:33:47;;;;;;;;;;;24.20;45.40;;;;;;5072592;28;19908;-61
2022/06/15 06:36:32;;;;;;;;;;;24.20;45.40;;;;;;5072681;28;20364;-60
2022/06/15 06:38:58;;;;;;;;;;;24.20;45.30;;;;;;5042384;28;19920;-60
2022/06/15 06:41:24;;;;;;;;;;;24.20;45.30;;;;;;5052560;28;19909;-60
2022/06/15 06:43:49;;;;;;;;;;;24.20;45.30;;;;;;5051224;28;20280;-60
2022/06/15 06:46:15;;;;;;;;;;;24.20;45.30;;;;;;5053344;28;19913;-60
2022/06/15 06:48:40;;;;;;;;;;;24.20;45.30;;;;;;5055046;28;19920;-60
2022/06/15 06:51:06;;;;;;;;;;;24.20;45.30;;;;;;5055226;28;19909;-60
2022/06/15 06:53:31;;;;;;;;;;;24.20;45.30;;;;;;5056380;28;19909;-60
2022/06/15 06:56:00;;;;;;;;;;;24.20;45.30;;;;;;5056290;28;19920;-61
2022/06/15 06:58:26;;;;;;;;;;;24.20;45.30;;;;;;5056473;28;20323;-61
2022/06/15 07:00:51;;;;;;;;;;;24.20;45.30;;;;;;5054901;28;19913;-60
2022/06/15 07:03:17;;;;;;;;;;;24.20;45.30;;;;;;5056120;28;19909;-61
2022/06/15 07:05:45;;;;;;;;;;;24.20;45.30;;;;;;5071395;28;20415;-60
2022/06/15 07:08:12;;;;;;;;;;;24.30;45.40;;;;;;5058064;28;19995;-61
2022/06/15 07:10:37;;;;;;;;;;;24.20;45.30;;;;;;5076130;28;19915;-61
2022/06/15 07:13:03;;;;;;;;;;;24.20;45.30;;;;;;5076071;28;19909;-61
2022/06/15 07:15:28;;;;;;;;;;;24.20;45.30;;;;;;5075869;28;19916;-61
2022/06/15 07:17:56;;;;;;;;;;;24.20;45.30;;;;;;5076217;28;20279;-61
2022/06/15 07:20:22;;;;;;;;;;;24.20;45.30;;;;;;5058003;28;19908;-61
2022/06/15 07:22:47;;;;;;;;;;;24.20;45.30;;;;;;5075783;28;19915;-61
2022/06/15 07:25:13;;;;;;;;;;;24.20;45.30;;;;;;5075718;28;19909;-61
2022/06/15 07:27:38;;;;;;;;;;;24.20;45.50;;;;;;5075729;28;19916;-60
2022/06/15 07:30:04;;;;;;;;;;;24.30;45.40;;;;;;5057970;28;19966;-60
2022/06/15 07:32:29;;;;;;;;;;;24.20;45.30;;;;;;5075580;28;19912;-61
2022/06/15 07:34:55;;;;;;;;;;;24.20;45.40;;;;;;5075650;28;19912;-60
2022/06/15 07:37:20;;;;;;;;;;;24.20;45.40;;;;;;5075914;28;20430;-60
2022/06/15 07:39:46;;;;;;;;;;;24.20;45.40;;;;;;5075522;28;20287;-61
2022/06/15 07:42:11;;;;;;;;;;;24.20;45.50;;;;;;5075738;28;19948;-61
2022/06/15 07:44:37;;;;;;;;;;;24.20;45.60;;;;;;5075454;28;20421;-61
2022/06/15 07:49:59;;;;;;;;;;;24.20;45.60;;;;;;5075495;28;19930;-61
2022/06/15 07:52:38;;;;;;;;;;;24.20;45.50;;;;;;5075447;28;19959;-61
2022/06/15 07:55:04;;;;;;;;;;;24.20;45.40;;;;;;5075292;28;19917;-61
2022/06/15 07:57:29;;;;;;;;;;;24.30;45.50;;;;;;5056211;28;20023;-61
2022/06/15 07:59:55;;;;;;;;;;;24.20;45.40;;;;;;5075068;28;19912;-61
2022/06/15 08:02:20;;;;;;;;;;;24.30;45.40;;;;;;5075185;28;19916;-60
2022/06/15 08:04:46;;;;;;;;;;;24.30;45.40;;;;;;5075021;28;19908;-61
2022/06/15 08:07:11;;;;;;;;;;;24.30;45.70;;;;;;5075122;28;19963;-61
2022/06/15 08:09:37;;;;;;;;;;;24.20;45.70;;;;;;5074957;28;19908;-61
2022/06/15 08:12:11;;;;;;;;;;;24.20;45.90;;;;;;5074913;28;19916;-61
2022/06/15 08:14:38;;;;;;;;;;;24.20;45.90;;;;;;5074781;28;19915;-61
2022/06/15 08:17:03;;;;;;;;;;;24.20;45.80;;;;;;5075023;28;20363;-60
2022/06/15 08:19:30;;;;;;;;;;;24.20;45.90;;;;;;5056933;28;19908;-61
2022/06/15 08:21:55;;;;;;;;;;;24.20;45.90;;;;;;5074812;28;19908;-61
2022/06/15 08:24:21;;;;;;;;;;;24.20;46.00;;;;;;5056837;28;20053;-61
2022/06/15 08:26:47;;;;;;;;;;;24.20;45.90;;;;;;5075025;28;19909;-61
2022/06/15 08:29:13;;;;;;;;;;;24.20;45.90;;;;;;5074757;28;19908;-61
2022/06/15 08:31:38;;;;;;;;;;;24.20;45.90;;;;;;5074703;28;20291;-61
2022/06/15 08:34:04;;;;;;;;;;;24.20;46.00;;;;;;5074283;28;19919;-61
2022/06/15 08:36:31;;;;;;;;;;;24.20;46.10;;;;;;5074564;28;20373;-61
2022/06/15 08:38:56;;;;;;;;;;;24.20;46.20;;;;;;5074354;28;19908;-61
2022/06/15 08:41:28;;;;;;;;;;;24.20;46.10;;;;;;5074440;28;20290;-61
2022/06/15 08:43:55;;;;;;;;;;;24.20;46.20;;;;;;5074336;28;19977;-61
2022/06/15 08:46:40;;;;;;;;;;;24.30;46.10;;;;;;5056648;28;19913;-60
2022/06/15 08:49:20;;;;;;;;;;;24.30;46.10;;;;;;5073884;28;19916;-61
2022/06/15 08:51:47;;;;;;;;;;;24.30;46.10;;;;;;5074010;28;19991;-60
2022/06/15 08:54:41;;;;;;;;;;;24.20;45.80;;;;;;5073941;28;19991;-61
2022/06/15 08:57:09;;;;;;;;;;;24.30;45.90;;;;;;5060378;28;19923;-61
2022/06/15 08:59:40;;;;;;;;;;;24.40;45.90;;;;;;5073782;28;19915;-61
2022/06/15 09:02:12;;;;;;;;;;;24.40;45.90;;;;;;5073859;28;19940;-61
2022/06/15 09:04:40;;;;;;;;;;;24.40;45.80;;;;;;5055802;28;20394;-61
2022/06/15 09:07:09;;;;;;;;;;;24.40;46.00;;;;;;5055607;28;19909;-61
2022/06/15 09:09:56;;;;;;;;;;;24.40;45.90;;;;;;5073328;28;19908;-61
2022/06/15 09:12:49;;;;;;;;;;;24.40;45.80;;;;;;5073710;28;19908;-61
2022/06/15 09:15:24;;;;;;;;;;;24.40;45.90;;;;;;5055723;28;19970;-61
2022/06/15 09:17:50;;;;;;;;;;;24.40;46.00;;;;;;5073749;28;20280;-60
2022/06/15 09:20:17;;;;;;;;;;;24.40;46.00;;;;;;5073656;28;19919;-60
2022/06/15 09:22:45;;;;;;;;;;;24.40;45.90;;;;;;5055609;28;20379;-61
2022/06/15 09:25:21;;;;;;;;;;;24.40;45.90;;;;;;5055762;28;19912;-60
2022/06/15 09:28:00;;;;;;;;;;;24.50;46.00;;;;;;5073385;28;20007;-60
2022/06/15 09:30:27;;;;;;;;;;;24.50;46.00;;;;;;5055436;28;19916;-60
2022/06/15 09:32:54;;;;;;;;;;;24.50;46.00;;;;;;5055784;28;19999;-60
2022/06/15 09:35:24;;;;;;;;;;;24.50;46.00;;;;;;5055395;28;19912;-60
2022/06/15 09:37:51;;;;;;;;;;;24.50;46.10;;;;;;5073307;28;19991;-61
2022/06/15 09:40:16;;;;;;;;;;;24.50;46.10;;;;;;5072156;28;19908;-61
2022/06/15 09:42:54;;;;;;;;;;;24.50;46.20;;;;;;5073464;28;19920;-61
2022/06/15 09:45:25;;;;;;;;;;;24.50;46.30;;;;;;5073201;28;19985;-61
2022/06/15 09:47:54;;;;;;;;;;;24.50;46.20;;;;;;5072914;28;19920;-61
2022/06/15 09:50:20;;;;;;;;;;;24.50;46.10;;;;;;5073225;28;20387;-61
2022/06/15 09:52:46;;;;;;;;;;;24.50;46.20;;;;;;5073301;28;19934;-61
2022/06/15 09:55:13;;;;;;;;;;;24.50;46.30;;;;;;5072907;28;20013;-61
2022/06/15 09:57:39;;;;;;;;;;;24.50;46.30;;;;;;5055342;28;19915;-61
2022/06/15 10:00:05;;;;;;;;;;;24.50;46.20;;;;;;5055121;28;19909;-61
2022/06/15 10:02:33;;;;;;;;;;;24.50;46.20;;;;;;5055118;28;19919;-60
2022/06/15 10:04:59;;;;;;;;;;;24.50;46.10;;;;;;5054900;28;19909;-61
2022/06/15 10:07:27;;;;;;;;;;;24.50;46.20;;;;;;5055203;28;19912;-61
2022/06/15 10:09:54;;;;;;;;;;;24.50;46.20;;;;;;5055385;28;20380;-61
2022/06/15 10:15:16;;;;;;;;;;;24.50;46.10;;;;;;5079509;28;19920;-61
2022/06/15 10:17:44;;;;;;;;;;;24.50;46.10;;;;;;5072856;28;20365;-61
2022/06/15 10:20:25;;;;;;;;;;;24.50;46.30;;;;;;5054609;28;19908;-61
2022/06/15 10:22:51;;;;;;;;;;;24.40;46.30;;;;;;5054733;28;20161;-60
2022/06/15 10:25:17;;;;;;;;;;;24.50;46.40;;;;;;5054864;28;19931;-61
2022/06/15 10:27:42;;;;;;;;;;;24.50;46.40;;;;;;5054818;28;20368;-61
2022/06/15 10:30:07;;;;;;;;;;;24.50;46.30;;;;;;5072798;28;19929;-60
2022/06/15 10:32:33;;;;;;;;;;;24.60;46.30;;;;;;5072574;28;20376;-61
2022/06/15 10:35:02;;;;;;;;;;;24.60;46.30;;;;;;5072647;28;20372;-60
2022/06/15 10:37:30;;;;;;;;;;;24.60;46.20;;;;;;5072810;28;19913;-62
2022/06/15 10:39:58;;;;;;;;;;;24.70;46.20;;;;;;5072624;28;19908;-61
2022/06/15 10:42:32;;;;;;;;;;;24.70;46.20;;;;;;5055122;28;19909;-61
2022/06/15 10:44:58;;;;;;;;;;;24.70;46.10;;;;;;5054664;28;19915;-61
2022/06/15 10:47:27;;;;;;;;;;;24.70;46.10;;;;;;5072480;28;20007;-61
2022/06/15 10:49:54;;;;;;;;;;;24.70;46.10;;;;;;5054522;28;19965;-61
2022/06/15 10:52:28;;;;;;;;;;;24.70;46.10;;;;;;5072402;28;20364;-61
2022/06/15 11:03:25;;;;;;;;;;;24.70;46.10;;;;;;5056948;28;20363;-61
2022/06/15 11:05:52;;;;;;;;;;;24.70;46.20;;;;;;5072186;28;19912;-61
2022/06/15 11:08:26;;;;;;;;;;;24.70;46.20;;;;;;5054295;28;19909;-60
2022/06/15 11:10:52;;;;;;;;;;;24.60;46.20;;;;;;5054254;28;19989;-61
2022/06/15 11:13:18;;;;;;;;;;;24.60;46.30;;;;;;5054389;28;19915;-61
2022/06/15 11:18:30;;;;;;;;;;;24.70;46.40;;;;;;5057035;28;19916;-61
2022/06/15 11:21:12;;;;;;;;;;;24.70;46.40;;;;;;5071903;28;19909;-61
2022/06/15 11:23:51;;;;;;;;;;;24.60;46.50;;;;;;5072060;28;19909;-61
2022/06/15 11:29:24;;;;;;;;;;;24.70;46.60;;;;;;5072245;28;20441;-61
2022/06/15 11:31:50;;;;;;;;;;;24.70;46.70;;;;;;5073208;28;20284;-61
2022/06/15 11:34:16;;;;;;;;;;;24.70;46.50;;;;;;5075558;28;19908;-61
2022/06/15 11:36:45;;;;;;;;;;;24.70;46.40;;;;;;5057627;28;19938;-61
2022/06/15 11:39:21;;;;;;;;;;;24.80;46.50;;;;;;5075371;28;19910;-61
2022/06/15 11:41:53;;;;;;;;;;;24.70;46.40;;;;;;5091192;28;19959;-61
2022/06/15 11:44:20;;;;;;;;;;;24.80;46.40;;;;;;5057639;28;19967;-61
2022/06/15 11:47:05;;;;;;;;;;;24.80;46.40;;;;;;5057251;28;20327;-61
2022/06/15 11:49:49;;;;;;;;;;;24.80;46.40;;;;;;5075379;28;19913;-61
2022/06/15 11:52:34;;;;;;;;;;;24.90;46.40;;;;;;5075385;28;20280;-61
2022/06/15 11:55:19;;;;;;;;;;;24.90;46.30;;;;;;5046665;28;19960;-61
2022/06/15 11:57:51;;;;;;;;;;;24.90;46.30;;;;;;5075235;28;19908;-61
2022/06/15 12:00:28;;;;;;;;;;;24.90;46.40;;;;;;5057374;28;20356;-61
2022/06/15 12:02:57;;;;;;;;;;;24.80;46.50;;;;;;5075455;28;19909;-61
2022/06/15 12:05:31;;;;;;;;;;;24.80;46.60;;;;;;5074975;28;19912;-61
2022/06/15 12:08:12;;;;;;;;;;;24.80;46.60;;;;;;5057122;28;19916;-61
2022/06/15 12:10:47;;;;;;;;;;;24.80;46.50;;;;;;5074947;28;19913;-60
2022/06/15 12:13:12;;;;;;;;;;;24.90;46.50;;;;;;5075213;28;19908;-61
2022/06/15 12:15:52;;;;;;;;;;;24.90;46.60;;;;;;5074872;28;20372;-61
2022/06/15 12:18:20;;;;;;;;;;;24.90;46.70;;;;;;5074880;28;20343;-61
2022/06/15 12:21:05;;;;;;;;;;;24.90;46.70;;;;;;5056988;28;19989;-61
2022/06/15 12:23:31;;;;;;;;;;;25.00;46.60;;;;;;5040198;28;20458;-61
2022/06/15 12:25:59;;;;;;;;;;;25.10;46.30;;;;;;5074742;28;19912;-61
2022/06/15 12:28:37;;;;;;;;;;;25.10;46.20;;;;;;5074599;28;19912;-61
2022/06/15 12:31:18;;;;;;;;;;;25.20;46.10;;;;;;5074958;28;20402;-61
2022/06/15 12:33:44;;;;;;;;;;;25.30;46.10;;;;;;5074656;28;20395;-61
2022/06/15 12:36:13;;;;;;;;;;;25.30;46.00;;;;;;5056503;28;19994;-61
2022/06/15 12:38:58;;;;;;;;;;;25.30;46.10;;;;;;5074347;28;19908;-61
2022/06/15 12:44:17;;;;;;;;;;;25.40;45.90;;;;;;5058621;28;20384;-61
2022/06/15 12:46:44;;;;;;;;;;;25.40;45.80;;;;;;5074157;28;19909;-61
2022/06/15 12:49:15;;;;;;;;;;;25.40;45.80;;;;;;5089918;28;19928;-61
2022/06/15 12:51:45;;;;;;;;;;;25.40;45.80;;;;;;5056678;28;19950;-61
2022/06/15 12:54:17;;;;;;;;;;;25.40;45.90;;;;;;5056418;28;19916;-61
2022/06/15 12:56:44;;;;;;;;;;;25.40;45.90;;;;;;5073746;28;21476;-61
2022/06/15 12:59:24;;;;;;;;;;;25.40;45.90;;;;;;5074055;28;20074;-61
2022/06/15 13:01:55;;;;;;;;;;;25.40;45.90;;;;;;5074055;28;19974;-61
2022/06/15 13:04:44;;;;;;;;;;;25.40;46.00;;;;;;5055965;28;19909;-61
2022/06/15 13:07:20;;;;;;;;;;;25.40;46.00;;;;;;5065487;28;19913;-61
2022/06/15 13:10:04;;;;;;;;;;;25.40;46.10;;;;;;5074214;28;20395;-61
2022/06/15 13:12:37;;;;;;;;;;;25.30;46.10;;;;;;5073974;28;20335;-61
2022/06/15 13:15:02;;;;;;;;;;;25.30;46.30;;;;;;5055875;28;19959;-61
2022/06/15 13:17:29;;;;;;;;;;;25.30;46.20;;;;;;5089325;28;19948;-61
2022/06/15 13:20:05;;;;;;;;;;;25.30;46.30;;;;;;5072680;28;19908;-61
2022/06/15 13:22:32;;;;;;;;;;;25.30;46.20;;;;;;5056052;28;19958;-61
2022/06/15 13:25:08;;;;;;;;;;;25.40;46.30;;;;;;5055961;28;19916;-61
2022/06/15 13:27:38;;;;;;;;;;;25.30;46.30;;;;;;5055559;28;19908;-61
2022/06/15 13:30:10;;;;;;;;;;;25.40;46.30;;;;;;5055686;28;19908;-61
2022/06/15 13:32:54;;;;;;;;;;;25.40;46.40;;;;;;5055660;28;19908;-61
2022/06/15 13:35:40;;;;;;;;;;;25.40;46.30;;;;;;5073382;28;20277;-61
2022/06/15 13:38:15;;;;;;;;;;;25.50;46.40;;;;;;5080082;28;19916;-61
2022/06/15 13:41:03;;;;;;;;;;;25.50;46.10;;;;;;5055585;28;19923;-62
2022/06/15 13:43:49;;;;;;;;;;;25.60;46.10;;;;;;5073091;28;19950;-62
2022/06/15 13:46:21;;;;;;;;;;;25.60;45.90;;;;;;5062445;28;19923;-62
2022/06/15 13:48:47;;;;;;;;;;;25.70;45.90;;;;;;5055152;28;20382;-61
2022/06/15 13:51:16;;;;;;;;;;;25.70;45.90;;;;;;5055422;28;19951;-61
2022/06/15 13:53:48;;;;;;;;;;;25.70;45.80;;;;;;5089033;28;20221;-61
2022/06/15 13:56:18;;;;;;;;;;;25.70;45.90;;;;;;5072148;28;19917;-61
2022/06/15 13:58:50;;;;;;;;;;;25.80;45.80;;;;;;5055074;28;19908;-61
2022/06/15 14:01:15;;;;;;;;;;;25.80;45.80;;;;;;5073022;28;20360;-61
2022/06/15 14:03:45;;;;;;;;;;;25.80;45.80;;;;;;5055072;28;19912;-62
2022/06/15 14:06:34;;;;;;;;;;;25.80;45.70;;;;;;5073413;28;20426;-61
2022/06/15 14:09:09;;;;;;;;;;;25.80;45.80;;;;;;5044308;28;20360;-61
2022/06/15 14:11:53;;;;;;;;;;;25.80;45.80;;;;;;5073124;28;20303;-61
2022/06/15 14:14:38;;;;;;;;;;;25.90;45.80;;;;;;5072970;28;19909;-61
2022/06/15 14:17:27;;;;;;;;;;;25.90;45.70;;;;;;5072499;28;19913;-61
2022/06/15 14:19:56;;;;;;;;;;;25.90;45.80;;;;;;5046674;28;19977;-61
2022/06/15 14:22:22;;;;;;;;;;;25.90;45.90;;;;;;5073163;28;19912;-61
2022/06/15 14:24:48;;;;;;;;;;;25.90;45.80;;;;;;5072859;28;19915;-61
2022/06/15 14:27:24;;;;;;;;;;;25.90;45.80;;;;;;5054941;28;19908;-61
2022/06/15 14:29:50;;;;;;;;;;;25.90;45.80;;;;;;5072828;28;19915;-61
2022/06/15 14:32:21;;;;;;;;;;;25.90;45.70;;;;;;5054930;28;19913;-61
2022/06/15 14:34:46;;;;;;;;;;;25.90;45.70;;;;;;5072632;28;19915;-61
2022/06/15 14:37:14;;;;;;;;;;;26.00;45.80;;;;;;5072789;28;20003;-61
2022/06/15 14:39:46;;;;;;;;;;;25.90;45.80;;;;;;5054640;28;19961;-61
2022/06/15 14:42:18;;;;;;;;;;;25.90;45.70;;;;;;5071435;28;19962;-61
2022/06/15 14:44:43;;;;;;;;;;;25.90;45.60;;;;;;5054712;28;19916;-61
2022/06/15 14:47:10;;;;;;;;;;;26.00;45.80;;;;;;5072505;28;19917;-61
2022/06/15 14:49:36;;;;;;;;;;;26.00;45.80;;;;;;5054854;28;19947;-61
2022/06/15 14:52:12;;;;;;;;;;;26.00;45.60;;;;;;5072884;28;19916;-61
2022/06/15 14:54:37;;;;;;;;;;;26.00;45.40;;;;;;5054922;28;19915;-61
2022/06/15 14:57:03;;;;;;;;;;;26.10;45.20;;;;;;5071384;28;19917;-61